Latest Coastal Weather Observations for Flinders Reef

IDQ60701

Issued at 11:12 pm EST Saturday 9 May 2026 (issued every 10 minutes, with the page automatically refreshed every 10 minutes)

About coastal observations | Map of coastal stations | Coastal observations for QLD | Marine services | Other Formats
Station Details ID: 200783 Name: FLINDERS REEF Lat: -17.72 Lon: 148.45 Height: 2.6 m
Data from the previous 72 hours. | See also: Recent months at Flinders Reef
Date/Time
EST
Wind Sea
Height
m
Swell Vis
km
Cloud Weather Temp
°C
Press
MSL
hPa
Rain since
9am
mm
Dir  Spd
kts
Gust
kts
Height
m
Period
s
Dir
09/11:00pm SE 24 27 - - - - - - - 26.3 1016.3 -
09/10:50pm ESE 23 27 - - - - - - - 26.3 1016.3 -
09/10:30pm E 23 27 - - - - - - - 26.2 1016.4 -
09/10:00pm E 22 27 - - - - - - - 25.8 1016.5 -
09/09:33pm SE 23 26 - - - - - - - 26.1 1016.8 -
09/09:30pm SSE 23 26 - - - - - - - 26.2 1016.8 -
09/09:00pm SE 23 27 - - - - - - - 26.2 1016.8 -
09/08:30pm SE 24 27 - - - - - - - 26.2 1016.8 -
09/08:03pm SE 23 28 - - - - - - - 25.8 1016.6 -
09/08:00pm SE 24 28 - - - - - - - 25.9 1016.6 -
09/07:30pm ESE 24 28 - - - - - - - 26.1 1016.2 -
09/07:00pm ESE 25 29 - - - - - - - 25.9 1015.9 -
09/06:30pm ESE 25 29 - - - - - - - 26.0 1015.5 -
09/06:00pm ESE 24 28 - - - - - - - 26.1 1015.4 -
09/05:30pm ESE 24 27 - - - - - - - 26.0 1015.0 -
09/05:00pm ESE 25 28 - - - - - - - 25.9 1014.6 -
09/04:30pm ESE 25 30 - - - - - - - 25.9 1014.6 -
09/04:00pm ESE 23 28 - - - - - - - 25.7 1014.3 -
09/03:30pm ESE 24 27 - - - - - - - 25.8 1014.1 -
09/03:00pm ESE 24 28 - - - - - - - 25.7 1013.9 -
09/02:30pm ESE 24 28 - - - - - - - 25.7 1013.9 -
09/02:00pm ESE 23 27 - - - - - - - 25.7 1014.2 -
09/01:30pm ESE 23 26 - - - - - - - 25.5 1014.4 -
09/01:00pm ESE 23 26 - - - - - - - 25.5 1014.6 -
09/12:30pm ESE 24 28 - - - - - - - 25.6 1014.8 -
09/12:00pm ESE 23 28 - - - - - - - 25.5 1015.1 -
09/11:30am ESE 23 26 - - - - - - - 25.4 1015.6 -
09/11:00am ESE 24 28 - - - - - - - 25.6 1016.0 -
09/10:30am ESE 25 29 - - - - - - - 25.6 1016.2 -
09/10:00am ESE 25 28 - - - - - - - 25.6 1016.5 -
09/09:30am ESE 24 28 - - - - - - - 25.5 1016.4 -
09/09:00am ESE 25 29 - - - - - - - 25.4 1016.2 -
09/08:30am ESE 24 28 - - - - - - - 25.5 1016.0 -
09/08:00am ESE 25 28 - - - - - - - 25.2 1015.8 -
09/07:49am SSE 25 30 - - - - - - - 25.2 1015.6 -
09/07:30am SSE 25 30 - - - - - - - 25.3 1015.4 -
09/07:00am SSE 25 29 - - - - - - - 25.3 1015.0 -
09/06:30am SSE 25 28 - - - - - - - 25.2 1014.8 -
09/06:00am SSE 23 28 - - - - - - - 25.2 1014.5 -
09/05:32am SE 25 28 - - - - - - - 25.2 1014.2 -
09/05:30am SE 25 28 - - - - - - - 25.3 1014.2 -
09/05:00am ESE 24 27 - - - - - - - 25.3 1013.9 -
09/04:30am SE 24 27 - - - - - - - 25.5 1014.0 -
09/04:00am SE 23 27 - - - - - - - 25.4 1013.9 -
09/03:30am ESE 24 28 - - - - - - - 25.4 1013.9 -
09/03:00am ESE 24 28 - - - - - - - 25.2 1013.9 -
09/02:30am SE 25 28 - - - - - - - 25.3 1014.0 -
09/02:00am SE 24 28 - - - - - - - 25.5 1014.0 -
09/01:30am ESE 23 28 - - - - - - - 25.4 1014.3 -
09/01:00am SE 24 28 - - - - - - - 25.3 1014.6 -
09/12:30am ESE 23 27 - - - - - - - 25.0 1014.8 -
09/12:16am SE 23 27 - - - - - - - 25.1 1014.9 -
09/12:00am SSE 26 29 - - - - - - - 24.6 1015.0 -
 
Date/Time
EST
Wind Sea
Height
m
Swell Vis
km
Cloud Weather Temp
°C
Press
MSL
hPa
Rain since
9am
mm
Dir  Spd
kts
Gust
kts
Height
m
Period
s
Dir
08/11:30pm SSE 25 30 - - - - - - - 24.6 1015.4 -
08/11:00pm SSE 26 31 - - - - - - - 25.3 1015.5 -
08/10:30pm SSE 26 29 - - - - - - - 25.2 1015.6 -
08/10:00pm SSE 25 30 - - - - - - - 25.1 1015.8 -
08/09:30pm SSE 25 30 - - - - - - - 25.1 1015.8 -
08/09:00pm SSE 25 29 - - - - - - - 25.5 1015.6 -
08/08:30pm SSE 23 28 - - - - - - - 25.5 1015.6 -
08/08:00pm SSE 22 29 - - - - - - - 24.8 1015.3 -
08/07:30pm SSE 22 25 - - - - - - - 24.6 1015.1 -
08/07:00pm SSE 23 27 - - - - - - - 24.3 1014.8 -
08/06:30pm SSE 24 29 - - - - - - - 24.0 1014.2 -
08/06:00pm SE 26 30 - - - - - - - 24.0 1014.0 -
08/05:30pm SE 25 29 - - - - - - - 25.1 1013.6 -
08/05:00pm SE 24 27 - - - - - - - 25.2 1013.3 -
08/04:30pm SE 18 22 - - - - - - - 25.7 1013.0 -
08/04:00pm SE 19 22 - - - - - - - 25.3 1012.8 -
08/03:30pm SE 19 22 - - - - - - - 25.6 1012.8 -
08/03:00pm SE 20 23 - - - - - - - 25.5 1012.6 -
08/02:30pm SE 20 25 - - - - - - - 26.0 1012.8 -
08/02:00pm SE 20 22 - - - - - - - 26.2 1013.0 -
08/01:30pm SE 20 23 - - - - - - - 26.0 1013.3 -
08/01:00pm SE 20 23 - - - - - - - 26.6 1013.7 -
08/12:30pm SE 20 23 - - - - - - - 26.6 1014.0 -
08/12:00pm SE 20 24 - - - - - - - 26.5 1014.3 -
08/11:30am SSE 21 25 - - - - - - - 26.5 1014.6 -
08/11:00am SSE 22 25 - - - - - - - 26.6 1015.0 -
08/10:35am ESE 20 23 - - - - - - - 26.6 1015.3 -
08/10:30am ESE 21 25 - - - - - - - 26.5 1015.4 -
08/10:00am ESE 20 24 - - - - - - - 26.5 1015.1 -
08/09:30am ESE 21 24 - - - - - - - 26.5 1014.9 -
08/09:00am ESE 21 25 - - - - - - - 26.5 1014.9 -
08/08:30am ESE 21 24 - - - - - - - 26.5 1014.7 -
08/08:00am ESE 22 25 - - - - - - - 26.4 1014.3 -
08/07:30am ESE 22 26 - - - - - - - 26.3 1014.1 -
08/07:00am ESE 20 24 - - - - - - - 26.3 1013.8 -
08/06:30am ESE 20 23 - - - - - - - 26.2 1013.4 -
08/06:21am SSE 21 24 - - - - - - - 26.3 1013.3 -
08/06:00am SSE 21 23 - - - - - - - 26.2 1013.1 -
08/05:30am SE 21 24 - - - - - - - 26.1 1012.9 -
08/05:29am SE 21 23 - - - - - - - 26.2 1012.9 -
08/05:00am ESE 20 23 - - - - - - - 26.2 1012.5 -
08/04:30am ESE 21 24 - - - - - - - 26.2 1012.4 -
08/04:00am ESE 19 23 - - - - - - - 26.1 1012.5 -
08/03:30am ESE 19 22 - - - - - - - 26.2 1012.4 -
08/03:07am SE 20 23 - - - - - - - 26.2 1012.3 -
08/03:00am SSE 19 23 - - - - - - - 26.2 1012.3 -
08/02:30am S 19 23 - - - - - - - 26.2 1012.5 -
08/02:00am SSE 21 23 - - - - - - - 26.1 1012.5 -
08/01:30am SSE 19 23 - - - - - - - 26.2 1012.8 -
08/01:15am ESE 18 22 - - - - - - - 26.2 1013.0 -
08/01:00am ESE 20 22 - - - - - - - 26.2 1013.0 -
08/12:54am ESE 20 22 - - - - - - - 26.3 1013.0 -
08/12:30am SSE 18 21 - - - - - - - 26.3 1013.2 -
08/12:00am SE 19 21 - - - - - - - 26.3 1013.4 -
 
Date/Time
EST
Wind Sea
Height
m
Swell Vis
km
Cloud Weather Temp
°C
Press
MSL
hPa
Rain since
9am
mm
Dir  Spd
kts
Gust
kts
Height
m
Period
s
Dir
07/11:30pm E 19 21 - - - - - - - 26.3 1013.6 -
07/11:00pm ESE 19 22 - - - - - - - 26.3 1013.9 -
07/10:30pm SSE 18 21 - - - - - - - 26.2 1014.0 -
07/10:00pm ESE 17 20 - - - - - - - 26.2 1014.4 -
07/09:30pm ESE 18 21 - - - - - - - 26.3 1014.6 -
07/09:00pm ESE 18 21 - - - - - - - 26.2 1014.5 -
07/08:30pm ESE 19 21 - - - - - - - 26.1 1014.5 -
07/08:00pm ESE 18 21 - - - - - - - 26.2 1014.3 -
07/07:30pm ESE 18 21 - - - - - - - 26.2 1014.1 -
07/07:00pm ESE 17 20 - - - - - - - 26.3 1013.8 -
07/06:30pm SE 18 21 - - - - - - - 26.2 1013.4 -
07/06:00pm SE 17 19 - - - - - - - 26.2 1013.0 -
07/05:30pm SE 17 19 - - - - - - - 26.2 1012.5 -
07/05:00pm SE 17 20 - - - - - - - 26.1 1012.1 -
07/04:30pm SE 16 19 - - - - - - - 26.2 1011.7 -
07/04:00pm ESE 15 17 - - - - - - - 26.2 1011.6 -
07/03:30pm ESE 14 17 - - - - - - - 26.2 1011.7 -
07/03:00pm E 15 17 - - - - - - - 26.3 1011.7 -
07/02:30pm ESE 15 17 - - - - - - - 26.1 1011.9 -
07/02:00pm ESE 16 18 - - - - - - - 26.1 1012.2 -
07/01:30pm ESE 15 17 - - - - - - - 26.1 1012.3 -
07/01:00pm ESE 14 16 - - - - - - - 26.2 1012.5 -
07/12:30pm ESE 14 17 - - - - - - - 26.1 1012.6 -
07/12:00pm ESE 14 16 - - - - - - - 26.2 1012.9 -
07/11:30am ESE 15 17 - - - - - - - 26.0 1013.1 -
07/11:00am ESE 14 16 - - - - - - - 26.0 1013.5 -
07/10:30am SE 14 17 - - - - - - - 25.9 1013.7 -
07/10:00am ESE 14 16 - - - - - - - 25.9 1013.9 -
07/09:30am ESE 13 15 - - - - - - - 25.9 1013.9 -
07/09:00am SE 13 15 - - - - - - - 25.9 1013.7 -
07/08:30am SE 12 14 - - - - - - - 25.8 1013.5 -
07/08:00am SSE 12 14 - - - - - - - 25.8 1013.3 -
07/07:30am SSE 11 13 - - - - - - - 25.8 1013.2 -
07/07:00am SSE 11 13 - - - - - - - 25.2 1013.1 -
07/06:30am SSE 13 15 - - - - - - - 25.2 1012.8 -
07/06:00am SSE 13 15 - - - - - - - 25.1 1012.4 -
07/05:30am SSE 13 15 - - - - - - - 25.3 1012.2 -
07/05:00am S 11 13 - - - - - - - 25.1 1012.2 -
07/04:30am S 14 16 - - - - - - - 24.9 1012.1 -
07/04:00am SE 11 13 - - - - - - - 25.6 1012.2 -
07/03:30am SSE 9 11 - - - - - - - 25.5 1012.2 -
07/03:00am SSE 8 10 - - - - - - - 25.4 1012.3 -
07/02:30am ESE 10 11 - - - - - - - 25.5 1012.4 -
07/02:00am ENE 10 13 - - - - - - - 24.9 1012.6 -
07/01:30am ESE 9 11 - - - - - - - 25.8 1012.7 -
07/01:00am ESE 10 11 - - - - - - - 25.6 1012.9 -
07/12:30am ESE 5 12 - - - - - - - 25.6 1013.3 -
07/12:00am ESE 1 4 - - - - - - - 25.7 1013.4 -
 
Date/Time
EST
Wind Sea
Height
m
Swell Vis
km
Cloud Weather Temp
°C
Press
MSL
hPa
Rain since
9am
mm
Dir  Spd
kts
Gust
kts
Height
m
Period
s
Dir
06/11:30pm ENE 11 17 - - - - - - - 24.2 1013.7 -

Other formats

Comma delimited format used in spreadsheet applications
http://www.bom.gov.au/fwo/IDQ60701/IDQ60701.94290.axf

JavaScript Object Notation format (JSON) in row-major order
http://www.bom.gov.au/fwo/IDQ60701/IDQ60701.94290.json

Data quality

Most of these data are generated automatically and are frequently updated. Quality checks on data are not normally performed. It is possible for incorrect values to appear. Refer to information at About Latest Weather Observations and please check the disclaimer before using these data.